Time;durP1;ratioP1;P1;durP2;ratioP2;P2;SDS_P1;SDS_P2;PMS_P1;PMS_P2;Temp;Humidity;BMP_temperature;BMP_pressure;BME280_temperature;BME280_humidity;BME280_pressure;Samples;Min_cycle;Max_cycle;Signal;HPM_P1;HPM_P2
2022/06/18 00:00:51;;;;;;;6.32;4.63;;;19.70;99.90;;;;;;6123556;23;20018;-93
2022/06/18 00:03:18;;;;;;;9.00;4.28;;;19.60;99.90;;;;;;6131061;23;20021;-93
2022/06/18 00:05:53;;;;;;;5.93;4.25;;;19.60;99.90;;;;;;6132238;23;20028;-95
2022/06/18 00:08:22;;;;;;;4.93;4.28;;;19.50;99.90;;;;;;6123272;23;20045;-94
2022/06/18 00:13:48;;;;;;;5.15;4.30;;;19.50;99.90;;;;;;6070217;23;20017;-94
2022/06/18 00:16:21;;;;;;;5.38;4.88;;;19.50;99.90;;;;;;6123166;23;20013;-94
2022/06/18 00:18:50;;;;;;;5.38;4.70;;;19.40;99.90;;;;;;6120882;23;20096;-95
2022/06/18 00:21:26;;;;;;;6.68;4.80;;;19.40;99.90;;;;;;6092760;23;20069;-94
2022/06/18 00:23:55;;;;;;;8.07;4.68;;;19.40;99.90;;;;;;6090490;23;20440;-96
2022/06/18 00:26:24;;;;;;;5.00;4.10;;;19.40;99.90;;;;;;6090341;23;20024;-93
2022/06/18 00:28:50;;;;;;;5.93;4.88;;;19.40;99.90;;;;;;6088093;23;20017;-95
2022/06/18 00:31:17;;;;;;;5.82;4.85;;;19.50;99.90;;;;;;6112124;23;20017;-94
2022/06/18 00:33:45;;;;;;;5.70;4.60;;;19.40;99.90;;;;;;6117178;23;20013;-93
2022/06/18 00:36:17;;;;;;;6.32;4.40;;;19.50;99.90;;;;;;6087834;23;20013;-94
2022/06/18 00:38:45;;;;;;;8.40;4.35;;;19.50;99.90;;;;;;6112600;23;20053;-95
2022/06/18 00:41:25;;;;;;;5.50;4.95;;;19.50;99.90;;;;;;6112561;23;20017;-93
2022/06/18 00:44:07;;;;;;;6.10;4.70;;;19.50;99.90;;;;;;6114198;23;20018;-94
2022/06/18 00:46:42;;;;;;;5.72;4.75;;;19.50;99.90;;;;;;6113495;23;20069;-94
2022/06/18 00:49:36;;;;;;;6.25;4.50;;;19.40;99.90;;;;;;6111961;23;20025;-93
2022/06/18 00:52:14;;;;;;;5.57;4.65;;;19.50;99.90;;;;;;6114831;23;20024;-94
2022/06/18 00:55:06;;;;;;;7.80;4.32;;;19.50;99.90;;;;;;6113972;23;20053;-92
2022/06/18 00:57:58;;;;;;;5.07;4.35;;;19.50;99.90;;;;;;6115105;23;20132;-96
2022/06/18 01:00:28;;;;;;;5.35;4.60;;;19.40;99.90;;;;;;6111765;23;20017;-92
2022/06/18 01:02:55;;;;;;;4.82;4.10;;;19.30;99.90;;;;;;6109716;23;20017;-96
2022/06/18 01:05:25;;;;;;;9.18;4.35;;;19.30;99.90;;;;;;6107584;23;20526;-94
2022/06/18 01:08:01;;;;;;;5.13;4.50;;;19.30;99.90;;;;;;6135517;23;20025;-96
2022/06/18 01:10:32;;;;;;;9.63;5.15;;;19.30;99.90;;;;;;6138092;23;20014;-94
2022/06/18 01:13:01;;;;;;;5.65;4.20;;;19.30;99.90;;;;;;6165028;23;20024;-94
2022/06/18 01:15:30;;;;;;;6.22;4.95;;;19.20;99.90;;;;;;6140515;23;20055;-94
2022/06/18 01:17:56;;;;;;;5.22;4.60;;;19.20;99.90;;;;;;6113379;23;20020;-94
2022/06/18 01:20:24;;;;;;;7.22;4.43;;;19.00;99.90;;;;;;6112504;23;20013;-94
2022/06/18 01:23:13;;;;;;;6.35;5.00;;;19.00;99.90;;;;;;6134301;23;20027;-93
2022/06/18 01:25:39;;;;;;;8.13;5.18;;;19.10;99.90;;;;;;6134793;23;20096;-94
2022/06/18 01:28:06;;;;;;;6.97;4.82;;;19.00;99.90;;;;;;6135335;23;20392;-93
2022/06/18 01:30:36;;;;;;;7.63;5.30;;;19.00;99.90;;;;;;6109813;23;20016;-94
2022/06/18 01:33:03;;;;;;;5.82;5.05;;;19.00;99.90;;;;;;6133988;23;20342;-93
2022/06/18 01:35:30;;;;;;;6.60;5.45;;;18.90;99.90;;;;;;6137348;23;20028;-94
2022/06/18 01:37:57;;;;;;;5.88;4.80;;;18.90;99.90;;;;;;6135390;23;20037;-93
2022/06/18 01:40:46;;;;;;;5.63;4.97;;;18.90;99.90;;;;;;6109820;23;20014;-93
2022/06/18 01:43:16;;;;;;;7.63;5.15;;;18.80;99.90;;;;;;6139444;23;20021;-93
2022/06/18 01:45:44;;;;;;;5.55;5.03;;;18.80;99.90;;;;;;6135007;23;20392;-95
2022/06/18 01:48:16;;;;;;;7.30;5.18;;;18.70;99.90;;;;;;6111812;23;20018;-93
2022/06/18 01:50:49;;;;;;;5.22;4.70;;;18.70;99.90;;;;;;6137048;23;20344;-94
2022/06/18 01:53:18;;;;;;;6.63;5.10;;;18.60;99.90;;;;;;6137814;23;20096;-93
2022/06/18 01:55:48;;;;;;;6.75;5.20;;;18.60;99.90;;;;;;6138359;23;20010;-93
2022/06/18 01:58:21;;;;;;;5.38;4.88;;;18.50;99.90;;;;;;6136947;23;20340;-93
2022/06/18 02:00:53;;;;;;;5.97;5.00;;;18.50;99.90;;;;;;6138056;23;20018;-94
2022/06/18 02:03:21;;;;;;;5.70;5.20;;;18.50;99.90;;;;;;6165747;23;20048;-94
2022/06/18 02:05:47;;;;;;;7.55;5.88;;;18.40;99.90;;;;;;6119008;23;20049;-93
2022/06/18 02:08:17;;;;;;;8.15;5.63;;;18.40;99.90;;;;;;6096961;23;20017;-94
2022/06/18 02:10:51;;;;;;;8.40;5.30;;;18.30;99.90;;;;;;6112276;23;20045;-93
2022/06/18 02:13:23;;;;;;;12.27;5.35;;;18.30;99.90;;;;;;6113136;23;20475;-91
2022/06/18 02:15:51;;;;;;;7.30;5.32;;;18.30;99.90;;;;;;6111616;23;20013;-92
2022/06/18 02:18:18;;;;;;;8.93;5.95;;;18.30;99.90;;;;;;6111522;23;20476;-92
2022/06/18 02:20:50;;;;;;;6.80;5.85;;;18.30;99.90;;;;;;6115467;23;20048;-92
2022/06/18 02:23:18;;;;;;;7.70;6.07;;;18.30;99.90;;;;;;6111881;23;20018;-92
2022/06/18 02:25:45;;;;;;;9.75;6.18;;;18.30;99.90;;;;;;6116867;23;20024;-94
2022/06/18 02:28:36;;;;;;;6.18;5.65;;;18.30;99.90;;;;;;6108656;23;20096;-91
2022/06/18 02:31:04;;;;;;;6.50;5.88;;;18.30;99.90;;;;;;6100358;23;20035;-92
2022/06/18 02:33:45;;;;;;;6.88;6.15;;;18.30;99.90;;;;;;6109561;23;20017;-91
2022/06/18 02:36:31;;;;;;;7.60;6.60;;;18.30;99.90;;;;;;6114923;23;20040;-94
2022/06/18 02:39:15;;;;;;;9.05;6.80;;;18.30;99.90;;;;;;6117271;23;20017;-96
2022/06/18 02:41:43;;;;;;;9.15;7.32;;;18.30;99.90;;;;;;6112776;23;20070;-91
2022/06/18 02:44:11;;;;;;;9.50;6.43;;;18.20;99.90;;;;;;6094770;23;20017;-90
2022/06/18 02:46:37;;;;;;;11.38;7.20;;;18.20;99.90;;;;;;6117310;23;20020;-92
2022/06/18 02:49:06;;;;;;;10.10;6.82;;;18.20;99.90;;;;;;6091010;23;20016;-93
2022/06/18 02:51:34;;;;;;;8.57;6.82;;;18.20;99.90;;;;;;6109741;23;20045;-93
2022/06/18 02:54:00;;;;;;;9.00;7.53;;;18.10;99.90;;;;;;6110454;23;20025;-93
2022/06/18 02:56:26;;;;;;;12.18;7.20;;;18.10;99.90;;;;;;6086901;23;20014;-92
2022/06/18 02:58:52;;;;;;;11.65;8.25;;;18.10;99.90;;;;;;6088120;23;20452;-93
2022/06/18 03:01:22;;;;;;;11.50;8.50;;;18.10;99.90;;;;;;6110930;23;20025;-94
2022/06/18 03:03:51;;;;;;;9.52;8.27;;;18.10;99.90;;;;;;6112717;23;20013;-94
2022/06/18 03:06:20;;;;;;;12.38;9.05;;;18.00;99.90;;;;;;6136517;23;20025;-94
2022/06/18 03:08:48;;;;;;;10.10;8.77;;;18.00;99.90;;;;;;6145600;23;20024;-93
2022/06/18 03:14:04;;;;;;;11.05;9.20;;;18.00;99.90;;;;;;6140780;23;20096;-92
2022/06/18 03:16:31;;;;;;;13.75;9.77;;;18.00;99.90;;;;;;6110423;23;20009;-94
2022/06/18 03:18:58;;;;;;;11.23;9.85;;;18.00;99.90;;;;;;6137281;23;20014;-93
2022/06/18 03:21:38;;;;;;;12.98;10.02;;;17.90;99.90;;;;;;6087261;23;20017;-92
2022/06/18 03:24:05;;;;;;;15.93;10.40;;;17.90;99.90;;;;;;6165027;23;20024;-94
2022/06/18 03:26:31;;;;;;;12.10;10.48;;;17.90;99.90;;;;;;6135755;23;20444;-94
2022/06/18 03:28:58;;;;;;;12.90;10.20;;;17.80;99.90;;;;;;6159962;23;20021;-92
2022/06/18 03:31:24;;;;;;;13.05;10.82;;;17.80;99.90;;;;;;6135354;23;20318;-92
2022/06/18 03:33:50;;;;;;;11.70;10.18;;;17.80;99.90;;;;;;6136983;23;20510;-93
2022/06/18 03:36:18;;;;;;;20.50;10.90;;;17.60;99.90;;;;;;6134757;23;20013;-92
2022/06/18 03:38:48;;;;;;;12.55;9.70;;;17.50;99.90;;;;;;6136780;23;20009;-96
2022/06/18 03:41:20;;;;;;;14.20;11.00;;;17.60;99.90;;;;;;6144805;23;20057;-95
2022/06/18 03:43:52;;;;;;;14.40;11.38;;;17.40;99.90;;;;;;6191570;23;20017;-95
2022/06/18 03:46:18;;;;;;;17.05;11.88;;;17.40;99.90;;;;;;6145671;23;20068;-96
2022/06/18 03:48:57;;;;;;;16.67;13.10;;;17.30;99.90;;;;;;6171974;23;20018;-96
2022/06/18 03:51:25;;;;;;;22.15;12.93;;;17.30;99.90;;;;;;6142291;23;20014;-94
2022/06/18 03:53:51;;;;;;;18.63;12.88;;;17.10;99.90;;;;;;6165186;23;20097;-95
2022/06/18 03:56:23;;;;;;;19.75;13.07;;;17.30;99.90;;;;;;6141454;23;20179;-95
2022/06/18 03:58:50;;;;;;;18.65;13.40;;;17.30;99.90;;;;;;6169876;23;20020;-96
2022/06/18 04:01:21;;;;;;;18.73;13.43;;;17.30;99.90;;;;;;6142687;23;20017;-94
2022/06/18 04:03:47;;;;;;;17.52;14.20;;;17.20;99.90;;;;;;6170879;23;20024;-93
2022/06/18 04:06:16;;;;;;;20.13;13.80;;;17.20;99.90;;;;;;6103062;23;20029;-96
2022/06/18 04:08:44;;;;;;;16.90;13.70;;;17.20;99.90;;;;;;6095683;23;20017;-95
2022/06/18 04:11:11;;;;;;;25.70;15.75;;;17.30;99.90;;;;;;6094957;23;20009;-96
2022/06/18 04:13:38;;;;;;;21.85;13.93;;;17.60;99.90;;;;;;6117703;23;20018;-95
2022/06/18 04:16:06;;;;;;;18.02;13.45;;;17.10;99.90;;;;;;6120060;23;20065;-94
2022/06/18 04:18:33;;;;;;;19.38;13.98;;;17.10;99.90;;;;;;6115772;23;20020;-95
2022/06/18 04:20:59;;;;;;;21.80;15.75;;;17.10;99.90;;;;;;6091009;23;20021;-96
2022/06/18 04:23:26;;;;;;;18.55;14.23;;;17.10;99.90;;;;;;6087772;23;20091;-94
2022/06/18 04:25:52;;;;;;;17.73;13.98;;;17.20;99.90;;;;;;6088061;23;20017;-94
2022/06/18 04:28:18;;;;;;;25.27;15.27;;;17.20;99.90;;;;;;6068960;23;20092;-95
2022/06/18 04:30:44;;;;;;;23.75;15.82;;;17.10;99.90;;;;;;6116981;23;20013;-96
2022/06/18 04:33:11;;;;;;;18.80;15.10;;;17.20;99.90;;;;;;6086992;23;20070;-94
2022/06/18 04:35:38;;;;;;;22.10;14.32;;;17.20;99.90;;;;;;6072229;23;20016;-93
2022/06/18 04:38:04;;;;;;;22.52;14.65;;;17.30;99.90;;;;;;6068399;23;20020;-94
2022/06/18 04:40:33;;;;;;;19.92;15.05;;;17.30;99.90;;;;;;6094458;23;20521;-94
2022/06/18 04:43:04;;;;;;;20.75;14.60;;;17.30;99.90;;;;;;6119905;23;20093;-95
2022/06/18 04:45:31;;;;;;;21.08;15.75;;;17.30;99.90;;;;;;6089512;23;20018;-96
2022/06/18 04:47:57;;;;;;;21.48;14.48;;;17.30;99.90;;;;;;6111297;23;20020;-94
2022/06/18 04:50:28;;;;;;;22.70;15.10;;;17.40;99.90;;;;;;6110714;23;20010;-94
2022/06/18 04:52:54;;;;;;;21.15;15.82;;;17.50;99.90;;;;;;6110858;23;20348;-96
2022/06/18 04:55:20;;;;;;;21.75;15.35;;;17.50;99.90;;;;;;6088309;23;20013;-95
2022/06/18 04:57:47;;;;;;;18.67;15.07;;;17.50;99.90;;;;;;6088270;23;20014;-95
2022/06/18 05:00:13;;;;;;;19.73;14.52;;;17.60;99.90;;;;;;6088182;23;20014;-95
2022/06/18 05:02:39;;;;;;;19.98;13.82;;;17.70;99.90;;;;;;6064123;23;20014;-96
2022/06/18 05:05:12;;;;;;;20.25;14.23;;;17.70;99.90;;;;;;6087566;23;20039;-95
2022/06/18 05:07:38;;;;;;;19.55;13.70;;;17.70;99.90;;;;;;6122130;23;20028;-96
2022/06/18 05:10:08;;;;;;;18.88;13.75;;;17.70;99.90;;;;;;6096551;23;20064;-94
2022/06/18 05:12:34;;;;;;;22.40;16.02;;;17.70;99.90;;;;;;6141096;23;20017;-96
2022/06/18 05:15:00;;;;;;;18.42;14.23;;;17.80;99.90;;;;;;6117172;23;20013;-96
2022/06/18 05:17:29;;;;;;;18.60;13.27;;;17.80;99.90;;;;;;6118917;23;20004;-95
2022/06/18 05:19:57;;;;;;;20.40;13.23;;;17.80;99.90;;;;;;6144775;23;20009;-95
2022/06/18 05:22:24;;;;;;;22.17;13.18;;;17.40;99.90;;;;;;6180170;23;20013;-95
2022/06/18 05:24:51;;;;;;;23.05;13.30;;;17.90;99.90;;;;;;6172954;23;20028;-95
2022/06/18 05:27:31;;;;;;;19.77;12.60;;;18.00;99.90;;;;;;6151654;23;20039;-93
2022/06/18 05:29:58;;;;;;;23.35;12.40;;;18.00;99.90;;;;;;6148857;23;20017;-90
2022/06/18 05:32:25;;;;;;;22.38;12.48;;;18.00;99.90;;;;;;6148142;23;20024;-90
2022/06/18 05:34:51;;;;;;;18.58;12.20;;;18.00;99.90;;;;;;6145629;23;20046;-91
2022/06/18 05:37:21;;;;;;;15.55;11.13;;;18.20;99.90;;;;;;6136322;23;20013;-91
2022/06/18 05:39:48;;;;;;;17.63;11.90;;;18.10;99.90;;;;;;6135676;23;20056;-90
2022/06/18 05:42:14;;;;;;;19.38;11.75;;;18.20;99.90;;;;;;6114026;23;20020;-91
2022/06/18 05:44:40;;;;;;;19.50;12.57;;;17.80;99.90;;;;;;6135665;23;20498;-91
2022/06/18 05:47:22;;;;;;;15.48;11.63;;;18.20;99.90;;;;;;6110648;23;20024;-90
2022/06/18 05:49:48;;;;;;;16.52;10.82;;;18.30;99.90;;;;;;6136530;23;20017;-89
2022/06/18 05:52:15;;;;;;;18.08;12.20;;;18.30;99.90;;;;;;6135442;23;20412;-91
2022/06/18 05:54:41;;;;;;;20.10;13.00;;;18.40;99.90;;;;;;6088625;23;20013;-91
2022/06/18 05:57:07;;;;;;;15.82;11.80;;;18.30;99.90;;;;;;6142803;23;20387;-91
2022/06/18 05:59:35;;;;;;;18.45;12.07;;;18.40;99.90;;;;;;6088287;23;20017;-92
2022/06/18 06:02:01;;;;;;;19.08;12.40;;;18.40;99.90;;;;;;6139828;23;20017;-91
2022/06/18 06:04:28;;;;;;;18.67;12.48;;;18.50;99.90;;;;;;6133048;23;20348;-90
2022/06/18 06:06:58;;;;;;;19.98;13.02;;;18.60;99.90;;;;;;6161896;23;20025;-94
2022/06/18 06:12:11;;;;;;;20.90;13.23;;;18.70;99.90;;;;;;6161304;23;20096;-90
2022/06/18 06:14:38;;;;;;;21.42;13.30;;;18.70;99.90;;;;;;6157396;23;20400;-90
2022/06/18 06:17:09;;;;;;;18.95;12.95;;;18.80;99.90;;;;;;6134190;23;20336;-90
2022/06/18 06:19:36;;;;;;;16.02;12.32;;;18.90;99.90;;;;;;6136516;23;20070;-89
2022/06/18 06:22:02;;;;;;;17.10;12.85;;;19.00;99.90;;;;;;6141045;23;20017;-91
2022/06/18 06:24:29;;;;;;;16.17;12.07;;;19.10;99.90;;;;;;6130355;23;20022;-89
2022/06/18 06:26:55;;;;;;;16.20;11.82;;;19.20;99.90;;;;;;6154515;23;20048;-91
2022/06/18 06:29:21;;;;;;;18.92;11.65;;;19.40;99.90;;;;;;6159663;23;20053;-91
2022/06/18 06:32:02;;;;;;;27.55;12.10;;;19.50;99.90;;;;;;6130961;23;20024;-92
2022/06/18 06:34:31;;;;;;;17.33;11.20;;;19.60;99.90;;;;;;6109478;23;20018;-91
2022/06/18 06:36:57;;;;;;;15.65;10.70;;;19.70;99.90;;;;;;6108481;23;20009;-90
2022/06/18 06:39:23;;;;;;;20.13;10.68;;;19.70;99.90;;;;;;6106720;23;20010;-90
2022/06/18 06:41:49;;;;;;;16.02;10.52;;;19.90;99.90;;;;;;6131164;23;20024;-92
2022/06/18 06:44:22;;;;;;;18.58;10.07;;;20.00;99.90;;;;;;6154219;23;20013;-91
2022/06/18 06:46:51;;;;;;;15.45;9.50;;;20.30;99.90;;;;;;6130447;23;20100;-91
2022/06/18 06:49:20;;;;;;;12.95;9.55;;;20.30;99.90;;;;;;6106368;23;20024;-93
2022/06/18 06:51:47;;;;;;;15.50;9.07;;;20.40;99.90;;;;;;6083071;23;20009;-91
2022/06/18 06:54:14;;;;;;;14.98;9.10;;;20.70;99.90;;;;;;6104661;23;20140;-91
2022/06/18 06:59:25;;;;;;;13.55;7.68;;;20.90;99.90;;;;;;6134185;23;20017;-92
2022/06/18 07:01:53;;;;;;;12.95;7.53;;;21.10;99.90;;;;;;6107006;23;20096;-91
2022/06/18 07:04:19;;;;;;;9.88;7.53;;;21.30;99.90;;;;;;6131994;23;20018;-90
2022/06/18 07:06:56;;;;;;;16.17;7.95;;;21.40;99.90;;;;;;6132062;23;20033;-90
2022/06/18 07:09:22;;;;;;;11.98;7.40;;;21.50;99.90;;;;;;6086977;23;20045;-90
2022/06/18 07:11:48;;;;;;;11.07;6.35;;;21.50;99.90;;;;;;6130398;23;20022;-92
2022/06/18 07:14:14;;;;;;;8.93;5.93;;;21.60;99.90;;;;;;6105988;23;20352;-90
2022/06/18 07:16:53;;;;;;;12.30;7.53;;;21.80;99.90;;;;;;6081440;23;20041;-92
2022/06/18 07:19:20;;;;;;;10.65;7.53;;;21.70;99.90;;;;;;6109920;23;20340;-91
2022/06/18 07:21:51;;;;;;;8.13;6.85;;;21.70;99.90;;;;;;6131195;23;20076;-92
2022/06/18 07:24:20;;;;;;;8.75;7.22;;;21.50;99.90;;;;;;6107605;23;20028;-90
2022/06/18 07:38:06;;;;;;;11.75;6.10;;;21.20;99.90;;;;;;6121343;23;20045;-95
2022/06/18 07:40:36;;;;;;;11.50;6.35;;;21.50;99.90;;;;;;6141377;23;20040;-96
2022/06/18 07:43:07;;;;;;;12.00;6.20;;;21.50;99.90;;;;;;6146337;23;20017;-96
2022/06/18 07:45:44;;;;;;;7.43;5.78;;;21.70;99.90;;;;;;6145142;23;20018;-96
2022/06/18 07:48:13;;;;;;;10.80;5.57;;;21.60;99.90;;;;;;6121623;23;20017;-96
2022/06/18 07:50:54;;;;;;;;;;;;;;;;;;;;;
2022/06/18 07:53:28;;;;;;;12.00;5.93;;;21.60;99.90;;;;;;6169240;23;20004;-96
2022/06/18 07:56:08;;;;;;;11.07;5.43;;;21.60;99.90;;;;;;6149312;23;20032;-96
2022/06/18 07:58:36;;;;;;;8.23;4.97;;;21.70;99.90;;;;;;6152548;23;20248;-94
2022/06/18 08:01:17;;;;;;;10.55;4.82;;;21.90;99.90;;;;;;6152941;23;20017;-95
2022/06/18 08:03:45;;;;;;;7.43;4.07;;;21.90;99.90;;;;;;6153151;23;20005;-95
2022/06/18 08:10:36;;;;;;;7.75;4.10;;;21.90;99.90;;;;;;6180677;23;20049;-96
2022/06/18 08:13:17;;;;;;;9.82;4.60;;;22.10;99.90;;;;;;6153866;23;20025;-96
2022/06/18 08:16:46;;;;;;;5.47;3.75;;;22.20;99.90;;;;;;6127062;23;20001;-96
2022/06/18 08:19:13;;;;;;;4.55;3.28;;;22.20;99.90;;;;;;6127241;23;20017;-96
2022/06/18 08:21:45;;;;;;;6.45;3.20;;;22.10;99.90;;;;;;6101597;23;20017;-96
2022/06/18 08:24:26;;;;;;;5.07;2.88;;;22.10;99.90;;;;;;6099687;23;20018;-95
2022/06/18 08:27:00;;;;;;;4.32;2.92;;;22.20;99.90;;;;;;6143641;23;20044;-96
2022/06/18 08:29:28;;;;;;;4.38;2.85;;;22.20;99.90;;;;;;6113595;23;20009;-90
2022/06/18 08:32:15;;;;;;;4.72;2.58;;;22.30;99.90;;;;;;6088389;23;20014;-91
2022/06/18 08:34:41;;;;;;;5.78;2.72;;;22.40;99.90;;;;;;6116017;23;20013;-89
2022/06/18 08:37:09;;;;;;;4.25;2.17;;;22.60;99.90;;;;;;6089069;23;20013;-91
2022/06/18 08:39:38;;;;;;;3.22;1.80;;;22.40;99.90;;;;;;6117533;23;20021;-90
2022/06/18 08:42:25;;;;;;;4.95;1.92;;;22.30;99.90;;;;;;6119527;23;20013;-91
2022/06/18 08:45:24;;;;;;;3.63;1.80;;;22.40;99.90;;;;;;6115179;23;20072;-91
2022/06/18 08:48:20;;;;;;;3.83;2.10;;;22.50;99.90;;;;;;6146960;23;20100;-93
2022/06/18 08:51:21;;;;;;;3.10;1.77;;;22.80;99.90;;;;;;6129348;23;20045;-94
2022/06/18 08:54:21;;;;;;;2.58;2.00;;;22.70;99.90;;;;;;6128804;23;20018;-93
2022/06/18 08:57:33;;;;;;;3.05;2.03;;;22.10;99.90;;;;;;6126519;23;20017;-93
2022/06/18 09:00:24;;;;;;;3.47;2.03;;;22.20;99.90;;;;;;6126786;23;20020;-94
2022/06/18 09:03:18;;;;;;;4.53;2.10;;;22.20;99.90;;;;;;6122675;23;20014;-95
2022/06/18 09:06:13;;;;;;;2.80;1.65;;;22.40;99.90;;;;;;6147219;23;20021;-93
2022/06/18 09:08:55;;;;;;;3.75;1.65;;;22.30;99.90;;;;;;6171014;23;20051;-95
2022/06/18 09:11:49;;;;;;;3.38;1.80;;;22.50;99.90;;;;;;6139839;23;20018;-93
2022/06/18 09:14:37;;;;;;;2.90;1.50;;;22.60;99.90;;;;;;6145308;23;20009;-92
2022/06/18 09:17:35;;;;;;;3.75;1.70;;;22.80;99.90;;;;;;6135953;23;20021;-91
2022/06/18 09:20:09;;;;;;;2.88;1.50;;;22.50;99.90;;;;;;6134068;23;20021;-91
2022/06/18 09:22:44;;;;;;;3.55;1.42;;;22.80;99.90;;;;;;6146920;23;20013;-93
2022/06/18 09:25:24;;;;;;;2.38;1.42;;;23.20;99.90;;;;;;6146211;23;20403;-91
2022/06/18 09:28:06;;;;;;;2.25;1.10;;;22.80;99.90;;;;;;6144799;23;20016;-92
2022/06/18 09:31:02;;;;;;;1.25;1.00;;;22.90;99.90;;;;;;6143772;23;20090;-90
2022/06/18 09:34:07;;;;;;;2.35;1.00;;;23.10;99.90;;;;;;6145744;23;20025;-92
2022/06/18 09:37:25;;;;;;;2.47;1.17;;;23.20;99.90;;;;;;6151966;23;20101;-92
2022/06/18 09:39:59;;;;;;;2.47;1.20;;;23.30;99.90;;;;;;6106942;23;20114;-92
2022/06/18 09:42:40;;;;;;;2.63;1.27;;;23.60;99.90;;;;;;6143025;23;20383;-93
2022/06/18 09:45:22;;;;;;;4.18;1.65;;;23.60;99.90;;;;;;6141311;23;20024;-91
2022/06/18 09:47:49;;;;;;;3.00;1.90;;;23.60;99.90;;;;;;6146810;23;20352;-89
2022/06/18 09:50:39;;;;;;;;;;;;;;;;;;;;;
2022/06/18 09:53:37;;;;;;;3.33;1.35;;;23.80;99.90;;;;;;6169155;23;20065;-94
2022/06/18 09:56:11;;;;;;;1.83;1.20;;;24.00;99.90;;;;;;6146529;23;20017;-94
2022/06/18 09:59:08;;;;;;;3.45;1.27;;;23.90;99.90;;;;;;6144756;23;20013;-96
2022/06/18 10:01:55;;;;;;;4.47;2.13;;;23.90;99.90;;;;;;6149161;23;20065;-94
2022/06/18 10:07:24;;;;;;;2.60;1.60;;;24.40;99.90;;;;;;6175338;23;20107;-93
2022/06/18 10:10:13;;;;;;;2.53;1.30;;;24.40;99.90;;;;;;6145772;23;20068;-93
2022/06/18 10:12:54;;;;;;;2.50;1.40;;;24.30;99.90;;;;;;6136098;23;20024;-92
2022/06/18 10:15:26;;;;;;;4.93;1.77;;;24.30;99.90;;;;;;6145437;23;20037;-94
2022/06/18 10:18:10;;;;;;;3.13;1.50;;;24.70;99.90;;;;;;6148267;23;20013;-94
2022/06/18 10:21:13;;;;;;;5.30;1.60;;;24.20;99.90;;;;;;6146798;23;20028;-94
2022/06/18 10:24:07;;;;;;;3.65;1.50;;;24.30;99.90;;;;;;6142485;23;20017;-92
2022/06/18 10:26:36;;;;;;;;;;;24.30;99.90;;;;;;6145496;23;20455;-91
2022/06/18 10:29:18;;;;;;;4.25;1.70;;;24.40;99.90;;;;;;6147054;23;20300;-94
2022/06/18 10:32:17;;;;;;;3.20;1.42;;;24.50;99.90;;;;;;6144664;23;20002;-95
2022/06/18 10:35:04;;;;;;;2.55;1.60;;;24.40;99.90;;;;;;6143178;23;20325;-91
2022/06/18 10:38:00;;;;;;;2.42;1.30;;;24.70;99.90;;;;;;6142023;23;20080;-95
2022/06/18 10:40:42;;;;;;;1.33;0.93;;;24.80;99.90;;;;;;6139182;23;20017;-93
2022/06/18 10:43:50;;;;;;;4.13;1.60;;;24.70;99.90;;;;;;6143358;23;20073;-91
2022/06/18 10:46:20;;;;;;;2.53;1.33;;;25.40;99.90;;;;;;6086430;23;20013;-92
2022/06/18 10:48:58;;;;;;;2.55;1.40;;;25.20;99.90;;;;;;6136786;23;20092;-92
2022/06/18 10:51:27;;;;;;;2.63;1.50;;;25.10;99.90;;;;;;6139295;23;20013;-93
2022/06/18 10:54:00;;;;;;;1.23;0.93;;;25.20;99.90;;;;;;6145792;23;20177;-92
2022/06/18 10:56:51;;;;;;;1.60;1.15;;;24.80;99.90;;;;;;6150018;23;20013;-92
2022/06/18 11:00:06;;;;;;;1.63;0.90;;;24.70;99.90;;;;;;6153896;23;20037;-90
2022/06/18 11:02:55;;;;;;;1.33;0.90;;;25.30;99.90;;;;;;6147206;23;20515;-92
2022/06/18 11:05:39;;;;;;;1.27;0.90;;;24.60;99.90;;;;;;6146880;23;20025;-90
2022/06/18 11:08:27;;;;;;;3.40;1.10;;;25.10;99.90;;;;;;6149110;23;20021;-96
2022/06/18 11:11:01;;;;;;;2.80;1.10;;;25.20;99.90;;;;;;6122344;23;20021;-93
2022/06/18 11:13:50;;;;;;;1.92;1.05;;;24.90;99.90;;;;;;6149400;23;20016;-95
2022/06/18 11:16:43;;;;;;;2.17;1.10;;;25.20;99.90;;;;;;6149374;23;20013;-94
2022/06/18 11:19:26;;;;;;;3.08;1.35;;;25.40;99.90;;;;;;6156926;23;20040;-94
2022/06/18 11:22:06;;;;;;;2.90;1.10;;;25.50;99.90;;;;;;6157256;23;20024;-93
2022/06/18 11:24:35;;;;;;;1.55;1.00;;;25.30;99.90;;;;;;6176035;23;20088;-94
2022/06/18 11:27:14;;;;;;;1.83;1.00;;;25.00;99.90;;;;;;6127793;23;20001;-94
2022/06/18 11:29:53;;;;;;;5.00;1.10;;;25.40;99.90;;;;;;6151441;23;20032;-95
2022/06/18 11:32:50;;;;;;;2.35;1.70;;;25.70;99.90;;;;;;6146866;23;20017;-94
2022/06/18 11:35:50;;;;;;;2.25;1.10;;;25.60;99.90;;;;;;6150323;23;20065;-95
2022/06/18 11:39:08;;;;;;;;;;;;;;;;;;;;;
2022/06/18 11:41:46;;;;;;;2.00;0.90;;;26.00;99.90;;;;;;6149009;23;20041;-91
2022/06/18 11:44:20;;;;;;;1.92;1.00;;;26.20;99.90;;;;;;6145572;23;20017;-92
2022/06/18 11:47:18;;;;;;;3.67;1.30;;;26.30;99.90;;;;;;6172642;23;20051;-91
2022/06/18 11:50:04;;;;;;;2.45;1.20;;;25.60;99.90;;;;;;6141906;23;20024;-91
2022/06/18 11:52:39;;;;;;;2.20;1.00;;;25.50;99.90;;;;;;6124707;23;20021;-90
2022/06/18 11:55:53;;;;;;;1.98;1.20;;;26.10;99.90;;;;;;6150225;23;20002;-95
2022/06/18 11:58:33;;;;;;;2.80;1.38;;;25.60;99.90;;;;;;6151693;23;20077;-94
2022/06/18 12:01:37;;;;;;;2.50;1.50;;;25.70;99.90;;;;;;6151206;23;20009;-94
2022/06/18 12:04:37;;;;;;;5.53;1.23;;;25.70;99.90;;;;;;6174444;23;20017;-95
2022/06/18 12:07:33;;;;;;;3.10;1.17;;;25.20;99.90;;;;;;6154472;23;20467;-95
2022/06/18 12:10:00;;;;;;;3.22;1.27;;;25.10;99.90;;;;;;6152110;23;20021;-96
2022/06/18 12:20:13;;;;;;;3.88;1.20;;;24.90;99.90;;;;;;6175186;23;20016;-95
2022/06/18 12:23:29;;;;;;;3.88;0.95;;;24.80;99.90;;;;;;6145348;23;20474;-93
2022/06/18 12:26:31;;;;;;;3.65;1.30;;;24.70;99.90;;;;;;6144563;23;20077;-92
2022/06/18 12:29:19;;;;;;;2.78;1.00;;;24.70;99.90;;;;;;6146783;23;20020;-94
2022/06/18 12:32:13;;;;;;;2.85;1.15;;;24.50;99.90;;;;;;6147392;23;20017;-93
2022/06/18 12:35:13;;;;;;;2.33;1.25;;;24.60;99.90;;;;;;6144364;23;20017;-94
2022/06/18 12:38:17;;;;;;;3.05;1.23;;;24.70;99.90;;;;;;6143832;23;20376;-94
2022/06/18 12:40:46;;;;;;;3.22;1.67;;;24.40;99.90;;;;;;6145527;23;20025;-93
2022/06/18 12:43:35;;;;;;;2.47;1.00;;;24.60;99.90;;;;;;6142385;23;20017;-92
2022/06/18 12:46:25;;;;;;;4.93;1.20;;;25.10;99.90;;;;;;6144583;23;20021;-94
2022/06/18 12:49:30;;;;;;;3.63;1.30;;;24.70;99.90;;;;;;6151338;23;20018;-90
2022/06/18 12:52:18;;;;;;;4.15;1.30;;;25.20;99.90;;;;;;6145917;23;20021;-92
2022/06/18 12:54:49;;;;;;;2.95;1.10;;;24.40;99.90;;;;;;6144953;23;20057;-91
2022/06/18 12:57:43;;;;;;;5.30;1.42;;;24.00;99.90;;;;;;6146099;23;20462;-91
2022/06/18 13:00:24;;;;;;;5.20;1.30;;;24.60;99.90;;;;;;6149519;23;20017;-93
2022/06/18 13:03:16;;;;;;;4.97;1.45;;;24.70;99.90;;;;;;6143053;23;20024;-92
2022/06/18 13:05:47;;;;;;;4.18;1.38;;;24.40;99.90;;;;;;6137649;23;20044;-92
2022/06/18 13:08:22;;;;;;;3.78;1.40;;;24.10;99.90;;;;;;6141995;23;20021;-92
2022/06/18 13:11:16;;;;;;;4.13;1.40;;;23.80;99.90;;;;;;6140724;23;20013;-92
2022/06/18 13:13:48;;;;;;;5.15;1.50;;;23.60;99.90;;;;;;6145054;23;20013;-94
2022/06/18 13:16:26;;;;;;;6.47;1.55;;;23.40;99.90;;;;;;6146848;23;20013;-91
2022/06/18 13:19:34;;;;;;;;;;;;;;;;;;;;;
2022/06/18 13:22:20;;;;;;;7.45;1.80;;;23.80;99.90;;;;;;6156228;23;20017;-94
2022/06/18 13:28:26;;;;;;;5.63;1.50;;;23.30;99.90;;;;;;6148028;23;20029;-93
2022/06/18 13:31:32;;;;;;;3.97;1.38;;;23.20;99.90;;;;;;6039583;23;20425;-95
2022/06/18 13:34:35;;;;;;;4.53;1.50;;;22.80;99.90;;;;;;6040519;23;20035;-95
2022/06/18 13:37:27;;;;;;;4.15;1.27;;;23.70;99.90;;;;;;6153528;23;20068;-96
2022/06/18 13:41:01;;;;;;;4.65;1.42;;;23.80;99.90;;;;;;6156877;23;20018;-96
2022/06/18 13:43:55;;;;;;;4.55;1.20;;;24.00;99.90;;;;;;6179958;23;20052;-94
2022/06/18 13:46:51;;;;;;;5.32;1.27;;;24.20;99.90;;;;;;6154760;23;20022;-96
2022/06/18 13:49:57;;;;;;;4.68;1.38;;;23.70;99.90;;;;;;6175712;23;20021;-96
2022/06/18 13:52:59;;;;;;;4.30;1.50;;;23.70;99.90;;;;;;6176722;23;20013;-96
2022/06/18 13:56:04;;;;;;;3.72;1.15;;;23.60;99.90;;;;;;6131672;23;20037;-96
2022/06/18 14:20:04;;;;;;;5.70;1.48;;;21.80;99.90;;;;;;6170071;23;20951;-91
2022/06/18 14:22:32;;;;;;;6.50;1.30;;;22.10;99.90;;;;;;6146969;23;20042;-91
2022/06/18 14:25:04;;;;;;;4.95;1.45;;;22.20;99.90;;;;;;6160181;23;20013;-93
2022/06/18 14:27:42;;;;;;;4.30;1.15;;;22.40;99.90;;;;;;6160421;23;20021;-92
2022/06/18 14:30:26;;;;;;;4.75;1.45;;;22.70;99.90;;;;;;6149290;23;20017;-92
2022/06/18 14:33:12;;;;;;;4.13;1.70;;;22.40;99.90;;;;;;6154754;23;20021;-90
2022/06/18 14:39:27;;;;;;;5.35;1.50;;;22.30;99.90;;;;;;6194750;23;20373;-91
2022/06/18 14:42:21;;;;;;;3.88;1.33;;;22.10;99.90;;;;;;6157392;23;20017;-91